Time;durP1;ratioP1;P1;durP2;ratioP2;P2;SDS_P1;SDS_P2;PMS_P1;PMS_P2;Temp;Humidity;BMP_temperature;BMP_pressure;BME280_temperature;BME280_humidity;BME280_pressure;Samples;Min_cycle;Max_cycle;Signal;HPM_P1;HPM_P2
2023/12/03 00:01:21;;;;;;;73.05;29.33;;;2.10;99.90;;;;;;5022792;28;20212;-67
2023/12/03 00:03:48;;;;;;;69.82;32.72;;;2.00;99.90;;;;;;5028546;28;20204;-65
2023/12/03 00:06:16;;;;;;;57.88;29.92;;;1.90;99.90;;;;;;5031709;28;20723;-65
2023/12/03 00:08:43;;;;;;;59.38;28.80;;;1.90;99.90;;;;;;5031821;28;20302;-68
2023/12/03 00:11:10;;;;;;;59.90;29.13;;;1.90;99.90;;;;;;5015660;28;20901;-65
2023/12/03 00:13:38;;;;;;;57.22;27.52;;;2.00;99.90;;;;;;5030339;28;20275;-70
2023/12/03 00:16:06;;;;;;;64.50;31.90;;;2.10;99.90;;;;;;5026801;28;20312;-68
2023/12/03 00:18:33;;;;;;;68.22;32.40;;;2.00;99.90;;;;;;5022974;28;20204;-65
2023/12/03 00:21:00;;;;;;;64.32;32.03;;;1.90;99.90;;;;;;5031447;28;20574;-65
2023/12/03 00:23:27;;;;;;;66.30;31.50;;;1.80;99.90;;;;;;5031368;28;20202;-68
2023/12/03 00:25:54;;;;;;;52.67;30.70;;;1.80;99.90;;;;;;5018672;28;20226;-68
2023/12/03 00:28:21;;;;;;;62.22;29.52;;;1.90;99.90;;;;;;5026478;28;20577;-65
2023/12/03 00:30:49;;;;;;;60.10;32.58;;;1.90;99.90;;;;;;5035168;28;20710;-65
2023/12/03 00:33:16;;;;;;;61.90;31.23;;;2.00;99.90;;;;;;5029718;28;20471;-68
2023/12/03 00:35:44;;;;;;;55.78;28.80;;;2.10;99.90;;;;;;5034463;28;20225;-66
2023/12/03 00:38:10;;;;;;;57.92;31.08;;;2.10;99.90;;;;;;5043261;28;20670;-65
2023/12/03 00:40:39;;;;;;;63.00;32.00;;;2.10;99.90;;;;;;5039208;28;20192;-66
2023/12/03 00:43:06;;;;;;;84.35;33.78;;;2.10;99.90;;;;;;5029521;28;20240;-70
2023/12/03 00:45:33;;;;;;;68.25;32.92;;;2.00;99.90;;;;;;5024776;28;20759;-71
2023/12/03 00:48:02;;;;;;;66.93;33.28;;;2.00;99.90;;;;;;5030882;28;20203;-64
2023/12/03 00:50:29;;;;;;;84.07;36.38;;;2.00;99.90;;;;;;5039569;28;20268;-68
2023/12/03 00:52:57;;;;;;;80.15;32.58;;;2.00;99.90;;;;;;5033872;28;20208;-70
2023/12/03 00:55:24;;;;;;;77.78;31.25;;;2.00;99.90;;;;;;5031947;28;20699;-66
2023/12/03 00:57:52;;;;;;;78.75;35.10;;;2.00;99.90;;;;;;5022057;28;20212;-67
2023/12/03 01:00:19;;;;;;;78.60;34.60;;;2.00;99.90;;;;;;5031331;28;20286;-67
2023/12/03 01:02:46;;;;;;;70.20;31.58;;;2.00;99.90;;;;;;5034307;28;20198;-66
2023/12/03 01:05:14;;;;;;;79.63;34.85;;;1.90;99.90;;;;;;5040130;28;20226;-68
2023/12/03 01:07:41;;;;;;;67.28;34.50;;;1.90;99.90;;;;;;5047537;28;20259;-68
2023/12/03 01:10:09;;;;;;;70.75;35.78;;;1.90;99.90;;;;;;5039865;28;20207;-68
2023/12/03 01:12:36;;;;;;;58.75;31.02;;;1.90;99.90;;;;;;5030917;28;20241;-67
2023/12/03 01:15:04;;;;;;;84.25;34.58;;;1.90;99.90;;;;;;5044396;28;20701;-70
2023/12/03 01:17:31;;;;;;;73.72;34.35;;;1.90;99.90;;;;;;5029550;28;20292;-65
2023/12/03 01:19:58;;;;;;;77.03;34.17;;;1.90;99.90;;;;;;5042817;28;20606;-66
2023/12/03 01:22:26;;;;;;;76.65;35.13;;;1.90;99.90;;;;;;5045748;28;20206;-69
2023/12/03 01:24:53;;;;;;;69.85;35.20;;;1.90;99.90;;;;;;5037967;28;20256;-70
2023/12/03 01:27:20;;;;;;;76.85;33.30;;;1.90;99.90;;;;;;5045492;28;20273;-65
2023/12/03 01:29:47;;;;;;;84.32;35.47;;;1.90;99.90;;;;;;5042142;28;20263;-69
2023/12/03 01:32:14;;;;;;;69.65;35.30;;;1.90;99.90;;;;;;5031344;28;20596;-67
2023/12/03 01:34:42;;;;;;;68.90;33.13;;;1.90;99.90;;;;;;5043194;28;20355;-67
2023/12/03 01:37:10;;;;;;;63.92;34.45;;;2.00;99.90;;;;;;5040271;28;20683;-65
2023/12/03 01:39:39;;;;;;;73.47;36.65;;;2.10;99.90;;;;;;5045511;28;20207;-66
2023/12/03 01:42:06;;;;;;;91.85;39.08;;;2.10;99.90;;;;;;5031822;28;20211;-68
2023/12/03 01:44:33;;;;;;;64.70;33.28;;;2.10;99.90;;;;;;5046705;28;20232;-67
2023/12/03 01:47:01;;;;;;;63.88;31.63;;;2.20;99.90;;;;;;5037951;28;20216;-65
2023/12/03 01:49:28;;;;;;;74.30;35.92;;;2.30;99.90;;;;;;5030290;28;20244;-67
2023/12/03 01:51:55;;;;;;;69.17;33.20;;;2.20;99.90;;;;;;5041093;28;20225;-68
2023/12/03 01:54:24;;;;;;;75.18;36.38;;;2.20;99.90;;;;;;5027920;28;20591;-67
2023/12/03 01:56:53;;;;;;;62.65;32.42;;;2.30;99.90;;;;;;5037227;28;20228;-65
2023/12/03 01:59:20;;;;;;;64.80;33.38;;;2.30;99.90;;;;;;5033951;28;20215;-69
2023/12/03 02:01:47;;;;;;;66.93;32.00;;;2.40;99.90;;;;;;5038948;28;20209;-69
2023/12/03 02:04:14;;;;;;;74.93;34.35;;;2.40;99.90;;;;;;5043138;28;20266;-65
2023/12/03 02:06:41;;;;;;;69.43;34.83;;;2.30;99.90;;;;;;5037430;28;20247;-69
2023/12/03 02:09:08;;;;;;;69.57;31.60;;;2.40;99.90;;;;;;5036816;28;20204;-66
2023/12/03 02:11:35;;;;;;;86.07;36.45;;;2.40;99.90;;;;;;5026658;28;20835;-66
2023/12/03 02:14:04;;;;;;;58.10;33.50;;;2.40;99.90;;;;;;5038644;28;20389;-69
2023/12/03 02:16:32;;;;;;;55.03;31.33;;;2.50;99.90;;;;;;5037127;28;20698;-68
2023/12/03 02:19:00;;;;;;;62.67;30.27;;;2.70;99.90;;;;;;5052952;28;20678;-70
2023/12/03 02:21:27;;;;;;;65.30;32.88;;;2.50;99.90;;;;;;5039636;28;20848;-65
2023/12/03 02:23:56;;;;;;;59.90;30.52;;;2.50;99.90;;;;;;5023574;28;20545;-69
2023/12/03 02:26:23;;;;;;;63.42;32.20;;;2.50;99.90;;;;;;5032089;28;20574;-66
2023/12/03 02:28:50;;;;;;;67.65;34.45;;;2.50;99.90;;;;;;5033426;28;20266;-65
2023/12/03 02:31:19;;;;;;;56.63;30.38;;;2.50;99.90;;;;;;5032691;28;20245;-67
2023/12/03 02:33:56;;;;;;;69.25;33.50;;;2.50;99.90;;;;;;5033195;28;20602;-66
2023/12/03 02:36:23;;;;;;;66.18;34.25;;;2.50;99.90;;;;;;5041660;28;20199;-66
2023/12/03 02:38:50;;;;;;;69.65;32.25;;;2.50;99.90;;;;;;5044204;28;20211;-65
2023/12/03 02:41:18;;;;;;;61.58;33.05;;;2.40;99.90;;;;;;5032851;28;20192;-67
2023/12/03 02:43:45;;;;;;;64.43;31.95;;;2.40;99.90;;;;;;5031851;28;20216;-66
2023/12/03 02:46:12;;;;;;;71.18;33.08;;;2.50;99.90;;;;;;5041401;28;20200;-68
2023/12/03 02:48:39;;;;;;;65.72;33.72;;;2.40;99.90;;;;;;5027829;28;20209;-67
2023/12/03 02:51:07;;;;;;;58.75;29.15;;;2.40;99.90;;;;;;5032096;28;20221;-68
2023/12/03 02:53:37;;;;;;;69.82;33.53;;;2.50;99.90;;;;;;5035028;28;20196;-67
2023/12/03 02:56:04;;;;;;;77.07;33.38;;;2.40;99.90;;;;;;5046072;28;20208;-68
2023/12/03 02:58:33;;;;;;;60.70;31.05;;;2.40;99.90;;;;;;5039644;28;20199;-69
2023/12/03 03:01:02;;;;;;;59.85;33.47;;;2.30;99.90;;;;;;5028214;28;20204;-68
2023/12/03 03:03:29;;;;;;;72.75;32.08;;;2.30;99.90;;;;;;5032564;28;20199;-65
2023/12/03 03:05:56;;;;;;;80.20;37.10;;;2.30;99.90;;;;;;5025759;28;20698;-65
2023/12/03 03:08:23;;;;;;;74.47;33.13;;;2.30;99.90;;;;;;5031965;28;20198;-67
2023/12/03 03:10:50;;;;;;;68.30;32.90;;;2.40;99.90;;;;;;5027337;28;20674;-65
2023/12/03 03:13:17;;;;;;;82.18;38.22;;;2.40;99.90;;;;;;5026918;28;20247;-64
2023/12/03 03:15:46;;;;;;;86.55;35.38;;;2.40;99.90;;;;;;5030255;28;20286;-67
2023/12/03 03:18:13;;;;;;;66.63;33.28;;;2.30;99.90;;;;;;5031355;28;20192;-66
2023/12/03 03:20:40;;;;;;;78.25;32.42;;;2.40;99.90;;;;;;5031426;28;20672;-68
2023/12/03 03:23:07;;;;;;;92.35;39.72;;;2.40;99.90;;;;;;5033947;28;20259;-67
2023/12/03 03:25:34;;;;;;;70.72;33.35;;;2.40;99.90;;;;;;5028416;28;20224;-64
2023/12/03 03:28:01;;;;;;;74.38;35.65;;;2.40;99.90;;;;;;5039570;28;20571;-65
2023/12/03 03:30:28;;;;;;;70.63;34.33;;;2.60;99.90;;;;;;5032453;28;20500;-69
2023/12/03 03:32:57;;;;;;;82.70;35.78;;;2.70;99.90;;;;;;5032532;28;20220;-69
2023/12/03 03:35:25;;;;;;;77.70;35.07;;;2.70;99.90;;;;;;5035286;28;20278;-67
2023/12/03 03:37:52;;;;;;;79.68;37.05;;;2.70;99.90;;;;;;5037510;28;20529;-69
2023/12/03 03:40:19;;;;;;;69.20;33.67;;;2.70;99.90;;;;;;5038265;28;20665;-66
2023/12/03 03:42:46;;;;;;;68.68;37.42;;;2.70;99.90;;;;;;5029153;28;20204;-65
2023/12/03 03:45:13;;;;;;;66.07;33.30;;;2.70;99.90;;;;;;5026585;28;20330;-69
2023/12/03 03:47:40;;;;;;;63.95;35.22;;;2.60;99.90;;;;;;5024609;28;20668;-67
2023/12/03 03:50:09;;;;;;;73.40;33.78;;;2.60;99.90;;;;;;5026469;28;20613;-67
2023/12/03 03:52:37;;;;;;;78.22;34.95;;;2.60;99.90;;;;;;5035392;28;20257;-65
2023/12/03 03:55:05;;;;;;;66.53;32.95;;;2.60;99.90;;;;;;5047304;28;20251;-67
2023/12/03 03:57:32;;;;;;;64.22;34.60;;;2.60;99.90;;;;;;5033378;28;20267;-69
2023/12/03 03:59:59;;;;;;;69.13;32.15;;;2.70;99.90;;;;;;5034635;28;20595;-67
2023/12/03 04:02:26;;;;;;;74.82;35.97;;;2.70;99.90;;;;;;5026832;28;20209;-64
2023/12/03 04:04:53;;;;;;;69.65;33.72;;;2.70;99.90;;;;;;5031647;28;20274;-64
2023/12/03 04:07:21;;;;;;;80.70;33.03;;;2.80;99.90;;;;;;5030799;28;20207;-65
2023/12/03 04:09:49;;;;;;;87.88;34.83;;;2.80;99.90;;;;;;5034030;28;20299;-65
2023/12/03 04:12:15;;;;;;;76.50;34.15;;;2.80;99.90;;;;;;5031413;28;20235;-64
2023/12/03 04:14:42;;;;;;;76.68;34.95;;;2.70;99.90;;;;;;5034908;28;20593;-66
2023/12/03 04:17:09;;;;;;;69.53;30.65;;;2.70;99.90;;;;;;5029832;28;20582;-66
2023/12/03 04:19:37;;;;;;;70.13;33.40;;;2.80;99.90;;;;;;5034103;28;20205;-68
2023/12/03 04:22:04;;;;;;;94.20;36.95;;;2.80;99.90;;;;;;5036363;28;20196;-67
2023/12/03 04:24:33;;;;;;;72.63;31.45;;;2.80;99.90;;;;;;5034875;28;20224;-65
2023/12/03 04:27:00;;;;;;;83.25;34.60;;;2.80;99.90;;;;;;5035428;28;20261;-67
2023/12/03 04:29:27;;;;;;;75.63;34.20;;;2.80;99.90;;;;;;5034180;28;20197;-66
2023/12/03 04:31:54;;;;;;;71.28;31.40;;;2.80;99.90;;;;;;5025558;28;20203;-68
2023/12/03 04:34:21;;;;;;;84.68;39.72;;;2.80;99.90;;;;;;5036174;28;20686;-66
2023/12/03 04:36:48;;;;;;;93.57;34.87;;;2.90;99.90;;;;;;5036083;28;20201;-68
2023/12/03 04:39:15;;;;;;;76.97;33.03;;;2.90;99.90;;;;;;5038249;28;20457;-68
2023/12/03 04:41:43;;;;;;;86.78;33.88;;;2.90;99.90;;;;;;5033669;28;20259;-66
2023/12/03 04:44:11;;;;;;;72.22;31.10;;;2.90;99.90;;;;;;5037800;28;20223;-64
2023/12/03 04:46:41;;;;;;;89.70;36.50;;;2.90;99.90;;;;;;5043882;28;20250;-65
2023/12/03 04:49:08;;;;;;;70.95;30.73;;;2.90;99.90;;;;;;5042224;28;20727;-69
2023/12/03 04:51:35;;;;;;;76.68;34.08;;;3.00;99.90;;;;;;5041310;28;20295;-68
2023/12/03 04:54:02;;;;;;;80.63;34.65;;;3.00;99.90;;;;;;5036852;28;20246;-69
2023/12/03 04:56:29;;;;;;;69.78;34.08;;;3.10;99.90;;;;;;5042301;28;20255;-66
2023/12/03 04:58:57;;;;;;;68.32;33.60;;;3.10;99.90;;;;;;5026362;28;20213;-70
2023/12/03 05:01:25;;;;;;;68.63;30.13;;;3.10;99.90;;;;;;5033115;28;20256;-68
2023/12/03 05:03:52;;;;;;;73.55;31.60;;;3.10;99.90;;;;;;5037210;28;20452;-66
2023/12/03 05:06:19;;;;;;;71.93;32.42;;;3.20;99.90;;;;;;5033324;28;20240;-64
2023/12/03 05:08:46;;;;;;;69.70;33.58;;;3.10;99.90;;;;;;5033368;28;20652;-68
2023/12/03 05:11:13;;;;;;;77.30;33.05;;;3.10;99.90;;;;;;5033703;28;20559;-64
2023/12/03 05:13:40;;;;;;;64.15;33.45;;;3.10;99.90;;;;;;5039333;28;20256;-70
2023/12/03 05:16:10;;;;;;;68.88;34.15;;;3.10;99.90;;;;;;5036018;28;20200;-66
2023/12/03 05:18:37;;;;;;;77.47;36.13;;;3.00;99.90;;;;;;5148775;23;20289;-68
2023/12/03 05:21:05;;;;;;;76.55;36.75;;;3.00;99.90;;;;;;5047088;28;20196;-67
2023/12/03 05:23:32;;;;;;;80.50;35.88;;;3.00;99.90;;;;;;5048479;28;20204;-66
2023/12/03 05:26:00;;;;;;;75.38;32.35;;;3.00;99.90;;;;;;5048176;28;20301;-69
2023/12/03 05:28:26;;;;;;;76.03;38.08;;;3.10;99.90;;;;;;5047145;28;20283;-67
2023/12/03 05:30:54;;;;;;;84.05;35.75;;;3.10;99.90;;;;;;5045821;28;20673;-64
2023/12/03 05:33:23;;;;;;;75.70;33.33;;;3.10;99.90;;;;;;5048900;28;20217;-69
2023/12/03 05:35:50;;;;;;;85.95;37.80;;;3.00;99.90;;;;;;5051840;28;20227;-63
2023/12/03 05:38:17;;;;;;;86.63;40.70;;;3.00;99.90;;;;;;5052429;28;20218;-69
2023/12/03 05:40:44;;;;;;;85.53;36.15;;;3.00;99.90;;;;;;5043773;28;20696;-66
2023/12/03 05:43:11;;;;;;;75.85;35.78;;;3.00;99.90;;;;;;5039141;28;20205;-69
2023/12/03 05:45:38;;;;;;;62.70;32.10;;;3.00;99.90;;;;;;5044982;28;20825;-67
2023/12/03 05:48:06;;;;;;;58.17;27.60;;;3.00;99.90;;;;;;5046193;28;20196;-66
2023/12/03 05:50:35;;;;;;;63.25;27.52;;;3.00;99.90;;;;;;5042983;28;20646;-67
2023/12/03 05:53:02;;;;;;;57.70;27.85;;;3.10;99.90;;;;;;5039608;28;20220;-64
2023/12/03 05:55:29;;;;;;;61.08;27.10;;;3.10;99.90;;;;;;5038290;28;20291;-66
2023/12/03 05:57:55;;;;;;;59.42;27.80;;;3.20;99.90;;;;;;5046718;28;20654;-66
2023/12/03 06:00:22;;;;;;;54.97;26.73;;;3.10;99.90;;;;;;5052295;28;20242;-65
2023/12/03 06:02:49;;;;;;;51.63;27.48;;;3.20;99.90;;;;;;5039969;28;20471;-68
2023/12/03 06:05:16;;;;;;;60.28;28.58;;;3.20;99.90;;;;;;5046965;28;20220;-67
2023/12/03 06:07:45;;;;;;;49.95;29.52;;;3.10;99.90;;;;;;5048083;28;20205;-67
2023/12/03 06:10:12;;;;;;;52.90;28.60;;;3.20;99.90;;;;;;5052455;28;20227;-69
2023/12/03 06:12:39;;;;;;;52.08;26.20;;;3.20;99.90;;;;;;5049765;28;20484;-66
2023/12/03 06:15:07;;;;;;;97.78;37.97;;;3.30;99.90;;;;;;5048360;28;20219;-66
2023/12/03 06:17:34;;;;;;;97.70;43.22;;;3.30;99.90;;;;;;5045387;28;20287;-70
2023/12/03 06:20:02;;;;;;;90.68;38.17;;;3.20;99.90;;;;;;5048501;28;20262;-64
2023/12/03 06:22:29;;;;;;;75.40;35.03;;;3.10;99.90;;;;;;5053291;28;20195;-67
2023/12/03 06:24:58;;;;;;;79.10;35.63;;;2.90;99.90;;;;;;5046466;28;20273;-65
2023/12/03 06:27:25;;;;;;;74.60;35.85;;;2.80;99.90;;;;;;5046267;28;20196;-64
2023/12/03 06:29:52;;;;;;;85.43;37.15;;;2.90;99.90;;;;;;5036205;28;20616;-65
2023/12/03 06:32:19;;;;;;;88.95;36.70;;;2.80;99.90;;;;;;5048826;28;20571;-65
2023/12/03 06:34:46;;;;;;;74.72;34.22;;;2.80;99.90;;;;;;5054092;28;20433;-67
2023/12/03 06:37:13;;;;;;;89.60;38.60;;;2.80;99.90;;;;;;5047814;28;20556;-66
2023/12/03 06:39:40;;;;;;;102.32;38.22;;;2.80;99.90;;;;;;5039479;28;20250;-65
2023/12/03 06:42:08;;;;;;;118.68;42.42;;;2.80;99.90;;;;;;5053008;28;20196;-67
2023/12/03 06:44:35;;;;;;;96.30;41.53;;;2.70;99.90;;;;;;5041742;28;20224;-64
2023/12/03 06:47:04;;;;;;;92.47;39.03;;;2.80;99.90;;;;;;5051716;28;20654;-68
2023/12/03 06:49:31;;;;;;;85.10;37.28;;;2.80;99.90;;;;;;5047379;28;20207;-65
2023/12/03 06:51:58;;;;;;;105.07;39.25;;;2.80;99.90;;;;;;5052893;28;20329;-69
2023/12/03 06:54:25;;;;;;;101.57;40.90;;;2.80;99.90;;;;;;5046001;28;20274;-67
2023/12/03 06:56:52;;;;;;;90.18;37.08;;;2.80;99.90;;;;;;5047684;28;20226;-66
2023/12/03 06:59:20;;;;;;;81.05;35.90;;;2.70;99.90;;;;;;5046029;28;20204;-67
2023/12/03 07:01:47;;;;;;;76.57;36.38;;;2.80;99.90;;;;;;5047653;28;20257;-66
2023/12/03 07:04:14;;;;;;;64.00;31.83;;;2.80;99.90;;;;;;5044450;28;20709;-69
2023/12/03 07:06:41;;;;;;;69.88;32.75;;;2.80;99.90;;;;;;5052804;28;20255;-65
2023/12/03 07:09:11;;;;;;;67.45;33.95;;;2.80;99.90;;;;;;5052336;28;20204;-65
2023/12/03 07:11:38;;;;;;;65.07;31.42;;;2.90;99.90;;;;;;5052252;28;20200;-66
2023/12/03 07:14:06;;;;;;;69.20;33.85;;;3.00;99.90;;;;;;5052449;28;20226;-69
2023/12/03 07:16:34;;;;;;;72.60;31.00;;;3.00;99.90;;;;;;5053480;28;20204;-65
2023/12/03 07:19:02;;;;;;;64.13;30.30;;;2.90;99.90;;;;;;5050796;28;20217;-67
2023/12/03 07:21:29;;;;;;;73.15;30.70;;;2.90;99.90;;;;;;5050672;28;20201;-64
2023/12/03 07:23:56;;;;;;;68.68;31.10;;;3.00;99.90;;;;;;5052801;28;20233;-69
2023/12/03 07:26:23;;;;;;;56.78;28.27;;;3.00;99.90;;;;;;5050974;28;20444;-67
2023/12/03 07:28:50;;;;;;;73.70;35.75;;;2.90;99.90;;;;;;5061759;28;20200;-68
2023/12/03 07:31:17;;;;;;;70.90;34.10;;;2.90;99.90;;;;;;5052608;28;20196;-69
2023/12/03 07:33:45;;;;;;;76.53;36.60;;;3.00;99.90;;;;;;5053293;28;20706;-69
2023/12/03 07:36:12;;;;;;;73.40;32.90;;;3.00;99.90;;;;;;5053378;28;20201;-65
2023/12/03 07:38:39;;;;;;;80.68;35.90;;;2.90;99.90;;;;;;5049293;28;20486;-68
2023/12/03 07:41:10;;;;;;;73.40;31.88;;;2.90;99.90;;;;;;5060821;28;20227;-68
2023/12/03 07:43:38;;;;;;;73.28;32.92;;;3.00;99.90;;;;;;5050618;28;20274;-65
2023/12/03 07:46:06;;;;;;;78.47;33.25;;;2.90;99.90;;;;;;5052252;28;20243;-70
2023/12/03 07:48:45;;;;;;;78.80;35.97;;;2.90;99.90;;;;;;5053434;28;20253;-69
2023/12/03 07:51:12;;;;;;;76.60;34.30;;;3.00;99.90;;;;;;5038353;28;20251;-69
2023/12/03 07:53:40;;;;;;;61.95;29.30;;;3.00;99.90;;;;;;5055489;28;20269;-69
2023/12/03 07:56:24;;;;;;;78.75;30.52;;;3.10;99.90;;;;;;5053193;28;20705;-68
2023/12/03 07:58:51;;;;;;;60.35;27.50;;;3.00;99.90;;;;;;5046929;28;20216;-67
2023/12/03 08:01:18;;;;;;;57.45;31.20;;;2.90;99.90;;;;;;5050139;28;20249;-68
2023/12/03 08:03:46;;;;;;;58.72;27.05;;;2.90;99.90;;;;;;5054258;28;20223;-67
2023/12/03 08:06:13;;;;;;;60.70;27.50;;;3.00;99.90;;;;;;5054814;28;20199;-70
2023/12/03 08:08:40;;;;;;;67.72;29.38;;;3.00;99.90;;;;;;5051820;28;20298;-70
2023/12/03 08:11:14;;;;;;;53.47;26.70;;;3.10;99.90;;;;;;5050927;28;20440;-69
2023/12/03 08:13:41;;;;;;;48.05;26.25;;;3.00;99.90;;;;;;5049000;28;20215;-68
2023/12/03 08:16:10;;;;;;;48.45;25.67;;;3.20;99.90;;;;;;5047963;28;20445;-66
2023/12/03 08:18:38;;;;;;;62.03;27.17;;;3.30;99.90;;;;;;5053500;28;20211;-66
2023/12/03 08:21:07;;;;;;;44.85;25.35;;;3.40;99.90;;;;;;5053285;28;20720;-67
2023/12/03 08:23:34;;;;;;;45.85;23.67;;;3.40;99.90;;;;;;5051848;28;20277;-66
2023/12/03 08:26:04;;;;;;;39.23;22.27;;;3.40;99.90;;;;;;5052566;28;20542;-65
2023/12/03 08:28:31;;;;;;;51.22;24.45;;;3.50;99.90;;;;;;5040514;28;20440;-69
2023/12/03 08:30:59;;;;;;;41.20;22.53;;;3.50;99.90;;;;;;5055199;28;20217;-67
2023/12/03 08:33:26;;;;;;;45.03;22.63;;;3.40;99.90;;;;;;5053465;28;20481;-66
2023/12/03 08:35:53;;;;;;;46.78;24.13;;;3.30;99.90;;;;;;5046100;28;20256;-67
2023/12/03 08:38:22;;;;;;;52.60;25.67;;;3.40;99.90;;;;;;5042279;28;20253;-70
2023/12/03 08:40:49;;;;;;;47.47;21.73;;;3.40;99.90;;;;;;5051347;28;20277;-67
2023/12/03 08:43:16;;;;;;;50.13;25.55;;;3.40;99.90;;;;;;5054067;28;20219;-68
2023/12/03 08:45:43;;;;;;;52.55;24.63;;;3.30;99.90;;;;;;5051054;28;20223;-66
2023/12/03 08:48:10;;;;;;;46.30;24.73;;;3.30;99.90;;;;;;5049989;28;20200;-68
2023/12/03 08:50:37;;;;;;;47.33;22.10;;;3.30;99.90;;;;;;5041609;28;20265;-67
2023/12/03 08:53:04;;;;;;;46.75;23.05;;;3.40;99.90;;;;;;5038804;28;20222;-71
2023/12/03 08:55:33;;;;;;;37.25;23.23;;;3.40;99.90;;;;;;5048347;28;20645;-70
2023/12/03 08:58:02;;;;;;;53.58;24.02;;;3.60;99.90;;;;;;5051012;28;20199;-71
2023/12/03 09:00:29;;;;;;;52.75;22.23;;;3.70;99.90;;;;;;5054652;28;20261;-69
2023/12/03 09:02:56;;;;;;;55.90;25.30;;;3.60;99.90;;;;;;5052650;28;20287;-67
2023/12/03 09:05:23;;;;;;;46.95;24.17;;;3.60;99.90;;;;;;5045611;28;20227;-65
2023/12/03 09:07:50;;;;;;;52.47;23.20;;;3.60;99.90;;;;;;5052633;28;20657;-70
2023/12/03 09:10:17;;;;;;;46.00;25.20;;;3.60;99.90;;;;;;5047418;28;20650;-70
2023/12/03 09:12:45;;;;;;;48.05;24.00;;;3.60;99.90;;;;;;5049990;28;20594;-71
2023/12/03 09:15:13;;;;;;;36.30;20.48;;;3.70;99.90;;;;;;5054932;28;20211;-69
2023/12/03 09:17:40;;;;;;;37.00;22.23;;;3.90;99.90;;;;;;5048798;28;20751;-68
2023/12/03 09:20:08;;;;;;;38.20;20.80;;;3.90;99.90;;;;;;5043885;28;20554;-66
2023/12/03 09:22:35;;;;;;;39.22;20.05;;;3.90;99.90;;;;;;5053947;28;20290;-69
2023/12/03 09:25:02;;;;;;;41.30;20.42;;;3.70;99.90;;;;;;5052093;28;20559;-66
2023/12/03 09:27:29;;;;;;;39.85;21.02;;;3.70;99.90;;;;;;5052107;28;20499;-67
2023/12/03 09:29:58;;;;;;;40.67;22.05;;;3.80;99.90;;;;;;5047443;28;20615;-68
2023/12/03 09:32:26;;;;;;;43.75;24.55;;;3.80;99.90;;;;;;5054433;28;20207;-72
2023/12/03 09:34:53;;;;;;;39.45;21.60;;;3.90;99.90;;;;;;5048326;28;20279;-68
2023/12/03 09:37:20;;;;;;;41.13;22.02;;;3.90;99.90;;;;;;5054391;28;20204;-68
2023/12/03 09:39:47;;;;;;;32.70;18.88;;;3.90;99.90;;;;;;5050117;28;20705;-66
2023/12/03 09:42:18;;;;;;;48.60;24.05;;;3.90;99.90;;;;;;5044941;28;20240;-66
2023/12/03 09:44:52;;;;;;;38.40;21.98;;;3.80;99.90;;;;;;5043009;28;20216;-66
2023/12/03 09:47:24;;;;;;;40.10;21.80;;;3.80;99.90;;;;;;5053974;28;20227;-68
2023/12/03 09:49:54;;;;;;;45.10;21.90;;;3.80;99.90;;;;;;5041834;28;20209;-69
2023/12/03 09:52:22;;;;;;;46.97;24.13;;;3.70;99.90;;;;;;5053234;28;20735;-67
2023/12/03 09:54:50;;;;;;;38.42;22.40;;;3.60;99.90;;;;;;5053512;28;20231;-69
2023/12/03 09:57:17;;;;;;;57.53;26.60;;;3.60;99.90;;;;;;5048930;28;20263;-68
2023/12/03 09:59:47;;;;;;;45.05;21.25;;;3.70;99.90;;;;;;5043769;28;20650;-72
2023/12/03 10:02:17;;;;;;;51.63;23.08;;;3.60;99.90;;;;;;5050039;28;20241;-68
2023/12/03 10:04:45;;;;;;;52.90;25.77;;;3.70;99.90;;;;;;5053921;28;20241;-66
2023/12/03 10:07:13;;;;;;;50.60;27.33;;;3.60;99.90;;;;;;5047943;28;20553;-66
2023/12/03 10:09:43;;;;;;;66.50;29.13;;;3.50;99.90;;;;;;5049643;28;20266;-68
2023/12/03 10:12:14;;;;;;;66.70;28.85;;;3.30;99.90;;;;;;5050379;28;20204;-67
2023/12/03 10:14:43;;;;;;;57.85;28.05;;;3.30;99.90;;;;;;5045887;28;20227;-66
2023/12/03 10:17:10;;;;;;;57.88;26.20;;;3.20;99.90;;;;;;5047641;28;20288;-66
2023/12/03 10:19:37;;;;;;;58.53;27.10;;;3.10;99.90;;;;;;5050151;28;20196;-69
2023/12/03 10:22:05;;;;;;;58.45;29.73;;;3.00;99.90;;;;;;5050521;28;20679;-67
2023/12/03 10:24:47;;;;;;;63.65;27.75;;;3.10;99.90;;;;;;5051640;28;20248;-67
2023/12/03 10:27:14;;;;;;;54.20;28.10;;;3.20;99.90;;;;;;5046183;28;20204;-67
2023/12/03 10:29:41;;;;;;;63.72;27.67;;;3.10;99.90;;;;;;5046610;28;20208;-68
2023/12/03 10:32:09;;;;;;;65.22;31.40;;;3.10;99.90;;;;;;5049037;28;20201;-69
2023/12/03 10:34:43;;;;;;;63.92;30.40;;;3.20;99.90;;;;;;5044139;28;20220;-66
2023/12/03 10:37:15;;;;;;;54.55;26.88;;;3.20;99.90;;;;;;5045261;28;20235;-67
2023/12/03 10:39:42;;;;;;;55.10;26.20;;;3.20;99.90;;;;;;5040452;28;20252;-71
2023/12/03 10:42:10;;;;;;;49.53;23.77;;;3.40;99.90;;;;;;5047590;28;20207;-70
2023/12/03 10:44:39;;;;;;;57.33;26.50;;;3.40;99.90;;;;;;5053234;28;20271;-67
2023/12/03 10:47:07;;;;;;;50.22;23.30;;;3.60;99.90;;;;;;5047460;28;20238;-69
2023/12/03 10:49:34;;;;;;;54.90;24.15;;;3.60;99.90;;;;;;5046252;28;20257;-67
2023/12/03 10:52:03;;;;;;;51.83;22.70;;;3.60;99.90;;;;;;5050430;28;20242;-69
2023/12/03 10:54:31;;;;;;;45.63;24.50;;;3.60;99.90;;;;;;5052637;28;20227;-67
2023/12/03 10:56:59;;;;;;;54.92;24.60;;;3.50;99.90;;;;;;5050722;28;20210;-68
2023/12/03 10:59:32;;;;;;;43.90;22.35;;;3.50;99.90;;;;;;5052275;28;20251;-70
2023/12/03 11:02:07;;;;;;;44.75;23.05;;;3.50;99.90;;;;;;5049393;28;20207;-70
2023/12/03 11:04:38;;;;;;;43.80;24.00;;;3.60;99.90;;;;;;5026143;28;20216;-71
2023/12/03 11:07:07;;;;;;;48.75;24.92;;;3.60;99.90;;;;;;5049701;28;20262;-66
2023/12/03 11:09:39;;;;;;;44.47;24.10;;;3.70;99.90;;;;;;5048812;28;20199;-68
2023/12/03 11:12:08;;;;;;;49.50;25.45;;;3.70;99.90;;;;;;5052264;28;20196;-68
2023/12/03 11:14:37;;;;;;;45.50;22.75;;;3.60;99.90;;;;;;5047483;28;20278;-68
2023/12/03 11:17:12;;;;;;;37.78;20.90;;;3.40;99.90;;;;;;5049580;28;20200;-68
2023/12/03 11:19:42;;;;;;;44.50;24.88;;;3.40;99.90;;;;;;5047319;28;20238;-68
2023/12/03 11:22:21;;;;;;;44.25;24.60;;;3.30;99.90;;;;;;5036187;28;20204;-70
2023/12/03 11:24:57;;;;;;;50.08;24.17;;;3.40;99.90;;;;;;5035168;28;20224;-66
2023/12/03 11:27:25;;;;;;;46.08;23.48;;;3.30;99.90;;;;;;5048302;28;20237;-66
2023/12/03 11:29:53;;;;;;;38.75;21.45;;;3.30;99.90;;;;;;5036266;28;20642;-66
2023/12/03 11:32:21;;;;;;;35.78;21.40;;;3.40;99.90;;;;;;5038562;28;20245;-68
2023/12/03 11:35:24;;;;;;;34.88;19.50;;;3.30;99.90;;;;;;5059803;23;20225;-83
2023/12/03 11:44:28;;;;;;;33.92;16.67;;;3.10;99.90;;;;;;4994501;28;20218;-84
2023/12/03 11:47:06;;;;;;;29.23;17.05;;;3.10;99.90;;;;;;4998326;28;20400;-82
2023/12/03 11:49:45;;;;;;;31.08;14.00;;;3.00;99.90;;;;;;5054395;28;20196;-85
2023/12/03 11:52:12;;;;;;;26.65;16.27;;;3.00;99.90;;;;;;5064338;28;20195;-84
2023/12/03 11:55:04;;;;;;;34.55;19.00;;;2.90;99.90;;;;;;5051618;28;20257;-84
2023/12/03 11:57:40;;;;;;;29.52;15.82;;;3.00;99.90;;;;;;5067733;28;20219;-84
2023/12/03 12:00:11;;;;;;;30.75;16.92;;;3.10;99.90;;;;;;5047639;28;20207;-84
2023/12/03 12:02:38;;;;;;;28.30;15.70;;;3.20;99.90;;;;;;5050227;28;20215;-83
2023/12/03 12:05:07;;;;;;;31.48;15.00;;;3.40;99.90;;;;;;5047130;28;20247;-84
2023/12/03 12:07:34;;;;;;;23.00;13.37;;;3.50;99.90;;;;;;5055503;28;20218;-84
2023/12/03 12:10:01;;;;;;;24.42;14.52;;;3.70;99.90;;;;;;5049479;28;20443;-84
2023/12/03 12:12:29;;;;;;;20.50;12.57;;;3.80;99.90;;;;;;5048164;28;20219;-84
2023/12/03 12:14:56;;;;;;;25.33;13.50;;;3.60;99.90;;;;;;5054429;28;20238;-84
2023/12/03 12:17:25;;;;;;;21.05;12.98;;;3.60;99.90;;;;;;5045907;28;20252;-85
2023/12/03 12:19:55;;;;;;;25.00;13.95;;;3.60;99.90;;;;;;5048708;28;20490;-84
2023/12/03 12:22:22;;;;;;;23.23;13.32;;;3.40;99.90;;;;;;5048015;28;20261;-85
2023/12/03 12:24:49;;;;;;;25.85;14.35;;;3.60;99.90;;;;;;5045453;28;20196;-85
2023/12/03 12:27:16;;;;;;;25.35;14.93;;;3.90;99.90;;;;;;5046365;28;20295;-84
2023/12/03 12:29:46;;;;;;;30.52;14.95;;;3.80;99.90;;;;;;5047820;28;20210;-84
2023/12/03 12:32:15;;;;;;;28.20;16.08;;;3.90;99.90;;;;;;5037164;28;20204;-84
2023/12/03 12:35:02;;;;;;;22.73;15.40;;;3.80;99.90;;;;;;5037060;28;20229;-84
2023/12/03 12:41:01;;;;;;;22.25;14.00;;;3.70;99.90;;;;;;5002759;28;20449;-85
2023/12/03 12:43:28;;;;;;;24.30;14.25;;;3.80;99.90;;;;;;5044449;28;20311;-84
2023/12/03 12:45:56;;;;;;;25.30;12.68;;;3.70;99.90;;;;;;5057682;28;20295;-84
2023/12/03 12:48:25;;;;;;;21.35;12.52;;;3.70;99.90;;;;;;5048191;28;20235;-84
2023/12/03 12:50:56;;;;;;;25.10;12.93;;;3.80;99.90;;;;;;5049072;28;20212;-87